Monday, December 22, 2014
14:13 UTC
  |  Log In   |  Register Free
Airport Search:

John F Kennedy Memorial Airport
(KASX)

John F Kennedy Memorial Airport Diagram
No Airport Diagram Available

FAA data valid effective November 13, 2014 - January 08, 2015 (unless otherwise noted).

 
 
 
 
 
 
 
 
 
 
 
 
 
 

Current Aviation Weather for John F Kennedy Memorial Airport (KASX)

The most recent METAR observation for KASX was updated at: 2111
METAR Summary (Translated METAR)
KASX
182053Z AUTO 00000KT 10SM OVC020 M04/M08 A3027 RMK AO2 SLP266 T10391078 55009
KIWD
182055Z AUTO 00000KT 10SM CLR M04/M08 A3020 RMK AO1 57014
(32.6 nm SE from KASX)
KHYR
182053Z AUTO 23003KT 10SM OVC012 M05/M08 A3024 RMK AO2 SLP261 T10501083 55007
(38.2 nm SW from KASX)
TAF Summary (Translated TAF)
KIWD
(32.6 nm SE from KASX)
221138Z 2212/2312 15009KT P6SM OVC008 TEMPO 2213/2215 OVC010 FM221500 14008KT P6SM OVC015 FM222100 12006KT P6SM SCT020 OVC050 FM230600 11005KT P6SM OVC020 FM231000 09005KT 3SM -SN OVC010 AMD LTD TO CLD VIS AND WIND
KHYR
(38.2 nm SW from KASX)
221147Z 2212/2312 16009KT P6SM OVC009 TEMPO 2212/2216 3SM BR OVC004 FM221600 13007KT 3SM -DZ BR OVC008 FM222300 12006KT 4SM -RASN BR OVC012 FM230600 09006KT 3SM -SN BR OVC009
  Airport Weather Conditions for KASX

 Current Weather at ASX
36° F
Overcast
Variable winds at 3.5 mph
ASX NOAA Radar

Pressure: 29.77 in
Humidity: 89%
Wind: Variable at 3.5 MPH (3 KT)
Dew Point: 33.1°F
Visibility: 9.00 mi


Airport Weather Forecast for KASX

Translated METAR and TAF for KASX
Translated METAR for KASX (1414 UTC 22 December 2014)
found at http://aviationweather.gov/adds/metars/
 
METAR text: KASX 221353Z AUTO 16005KT 10SM OVC015 02/01 A2977 RMK AO2 SLP091 T00220006
Conditions at: KASX (ASHLAND , WI, US) observed 1353 UTC 22 December 2014
Temperature: 2.2°C (36°F)
Dewpoint: 0.6°C (33°F) [RH = 89%]
Pressure (altimeter): 29.77 inches Hg (1008.2 mb)
[Sea-level pressure: 1009.1 mb]
Winds: from the SSE (160 degrees) at 6 MPH (5 knots; 2.6 m/s)
Visibility: 10 or more miles (16+ km)
Ceiling: 1500 feet AGL
Clouds: overcast cloud deck at 1500 feet AGL
Weather: automated observation with no human augmentation;
there may or may not be significant weather present at this time
Translated TAF for KASX

There is no translated TAF available for this airport

Find All Airport Services Find A Hotel Find A Rental Car Find A Golf Course Find A Restaurant $100 Hamburger



FBO's on the Field
FBO Company Facility Photos Services Transportation Aviation Fuel Prices: Prices include tax
Catering Weather Repair Courtesy Rental Type 100LL JetA JetA+ MOGAS 8087
 
John F Kennedy Memorial Airport

This FBO has not yet been rated
FS:Phillips 66
Last Updated: Dec-18
Login to update fuel prices
SS:
Contact John F Kennedy Memorial AirportMore FBO Information
 
Add another FBO Facility Photos Catering Weather Repair Courtesy Rental Type 100LL JetA JetA+ MOGAS 8087
Services Transportation Aviation Fuel Prices: Prices include tax


model-print
model-print
model-print
model-print